Time;durP1;ratioP1;P1;durP2;ratioP2;P2;SDS_P1;SDS_P2;PMS_P1;PMS_P2;Temp;Humidity;BMP_temperature;BMP_pressure;BME280_temperature;BME280_humidity;BME280_pressure;Samples;Min_cycle;Max_cycle;Signal;HPM_P1;HPM_P2
2022/06/09 00:00:49;;;;;;;1999.90;999.90;;;15.70;99.90;;;;;;4953873;29;20046;-72
2022/06/09 00:03:19;;;;;;;1999.90;999.90;;;15.70;99.90;;;;;;4954514;29;20027;-73
2022/06/09 00:05:46;;;;;;;1999.90;999.90;;;15.70;99.90;;;;;;4937152;29;20035;-74
2022/06/09 00:08:12;;;;;;;1999.90;999.90;;;15.70;99.90;;;;;;4954602;29;20023;-77
2022/06/09 00:10:45;;;;;;;1999.90;999.90;;;15.70;99.90;;;;;;4955610;29;20102;-77
2022/06/09 00:13:11;;;;;;;1999.90;999.90;;;15.70;99.90;;;;;;4954585;29;20038;-74
2022/06/09 00:15:37;;;;;;;1999.90;999.90;;;15.70;99.90;;;;;;4954117;29;20474;-74
2022/06/09 00:18:03;;;;;;;1999.90;999.90;;;15.70;99.90;;;;;;4954342;29;20031;-78
2022/06/09 00:20:28;;;;;;;1999.90;999.90;;;15.60;99.90;;;;;;4947966;28;20402;-74
2022/06/09 00:22:54;;;;;;;1999.90;999.90;;;15.70;99.90;;;;;;4959984;28;20054;-77
2022/06/09 00:25:20;;;;;;;1999.90;999.90;;;15.70;99.90;;;;;;4960319;28;20035;-74
2022/06/09 00:27:46;;;;;;;1999.90;999.90;;;15.70;99.90;;;;;;4971699;28;20481;-77
2022/06/09 00:30:13;;;;;;;1999.90;999.90;;;15.70;99.90;;;;;;4973830;28;20088;-78
2022/06/09 00:32:39;;;;;;;1999.90;999.90;;;15.70;99.90;;;;;;4967732;28;20046;-74
2022/06/09 00:35:05;;;;;;;1999.90;999.90;;;15.80;99.90;;;;;;4954738;29;20254;-74
2022/06/09 00:37:31;;;;;;;1999.90;999.90;;;15.80;99.90;;;;;;4953818;29;20035;-74
2022/06/09 00:39:57;;;;;;;1999.90;999.90;;;15.80;99.90;;;;;;4959718;28;20034;-74
2022/06/09 00:42:23;;;;;;;1999.90;999.90;;;15.80;99.90;;;;;;4957356;29;20376;-77
2022/06/09 00:44:49;;;;;;;1999.90;999.90;;;15.80;99.90;;;;;;4957662;29;20110;-77
2022/06/09 00:47:25;;;;;;;1999.90;999.90;;;15.80;99.90;;;;;;4965576;28;20027;-78
2022/06/09 00:50:10;;;;;;;1999.90;999.90;;;15.70;99.90;;;;;;4957605;29;20058;-78
2022/06/09 00:52:40;;;;;;;1999.90;999.90;;;15.70;99.90;;;;;;4938966;29;20106;-79
2022/06/09 00:55:12;;;;;;;1999.90;999.90;;;15.70;99.90;;;;;;4958570;29;20032;-78
2022/06/09 00:57:48;;;;;;;1999.90;999.90;;;15.70;99.90;;;;;;4960866;28;20069;-77
2022/06/09 01:00:24;;;;;;;1999.90;999.90;;;15.70;99.90;;;;;;4958657;28;20031;-74
2022/06/09 01:02:54;;;;;;;1999.90;999.90;;;15.80;99.90;;;;;;4968732;28;20027;-74
2022/06/09 01:05:23;;;;;;;1999.90;999.90;;;15.80;99.90;;;;;;4976654;28;20433;-74
2022/06/09 01:07:52;;;;;;;1999.90;999.90;;;15.90;99.90;;;;;;4976105;28;20030;-74
2022/06/09 01:10:17;;;;;;;1999.90;999.90;;;16.00;99.90;;;;;;4976495;28;20106;-74
2022/06/09 01:12:45;;;;;;;1999.90;999.90;;;16.00;99.90;;;;;;4972567;28;20111;-74
2022/06/09 01:15:14;;;;;;;1999.90;999.90;;;16.00;99.90;;;;;;4956212;29;20054;-77
2022/06/09 01:17:51;;;;;;;1999.90;999.90;;;16.00;99.90;;;;;;4959287;29;20471;-76
2022/06/09 01:20:32;;;;;;;1999.90;999.90;;;16.10;99.90;;;;;;4961390;29;20019;-74
2022/06/09 01:23:06;;;;;;;1999.90;999.90;;;16.10;99.90;;;;;;4956486;28;20067;-74
2022/06/09 01:25:44;;;;;;;1999.90;999.90;;;16.10;99.90;;;;;;4969611;28;20027;-74
2022/06/09 01:28:28;;;;;;;1999.90;999.90;;;16.10;99.90;;;;;;4947807;28;20034;-77
2022/06/09 01:30:56;;;;;;;1999.90;999.90;;;16.10;99.90;;;;;;4958373;28;20031;-75
2022/06/09 01:33:50;;;;;;;1999.90;999.90;;;16.20;99.90;;;;;;4964901;28;20078;-74
2022/06/09 01:36:40;;;;;;;1999.90;999.90;;;16.20;99.90;;;;;;4945817;29;20055;-74
2022/06/09 01:39:06;;;;;;;1999.90;999.90;;;16.20;99.90;;;;;;4965437;28;20491;-74
2022/06/09 01:41:34;;;;;;;1999.90;999.90;;;16.20;99.90;;;;;;4956882;29;20098;-74
2022/06/09 01:44:00;;;;;;;1999.90;999.90;;;16.20;99.90;;;;;;4938570;29;20039;-75
2022/06/09 01:46:33;;;;;;;1999.90;999.90;;;16.30;99.90;;;;;;4956702;29;20031;-74
2022/06/09 01:49:05;;;;;;;1999.90;999.90;;;16.30;99.90;;;;;;4954200;29;20038;-78
2022/06/09 01:51:35;;;;;;;1999.90;999.90;;;16.30;99.90;;;;;;4955573;28;20070;-75
2022/06/09 01:54:05;;;;;;;1999.90;999.90;;;16.30;99.90;;;;;;4939114;29;20165;-77
2022/06/09 01:56:49;;;;;;;1999.90;999.90;;;16.40;99.90;;;;;;4955922;29;20034;-78
2022/06/09 01:59:27;;;;;;;1999.90;999.90;;;16.30;99.90;;;;;;4960537;28;20478;-77
2022/06/09 02:02:17;;;;;;;1999.90;999.90;;;16.30;99.90;;;;;;4973523;28;20121;-74
2022/06/09 02:04:57;;;;;;;1999.90;999.90;;;16.40;99.90;;;;;;4975368;28;20097;-74
2022/06/09 02:07:26;;;;;;;1999.90;999.90;;;16.30;99.90;;;;;;4965092;28;20069;-76
2022/06/09 02:09:52;;;;;;;1999.90;999.90;;;16.30;99.90;;;;;;4955891;29;20027;-74
2022/06/09 02:12:22;;;;;;;1999.90;999.90;;;16.30;99.90;;;;;;4956006;29;20113;-74
2022/06/09 02:14:51;;;;;;;1999.90;999.90;;;16.30;99.90;;;;;;4950304;29;20476;-74
2022/06/09 02:17:18;;;;;;;1999.90;999.90;;;16.30;99.90;;;;;;4953394;29;20027;-77
2022/06/09 02:19:45;;;;;;;1999.90;999.90;;;16.30;99.90;;;;;;4955696;29;20398;-78
2022/06/09 02:22:12;;;;;;;1999.90;999.90;;;16.30;99.90;;;;;;4955490;29;20039;-74
2022/06/09 02:24:38;;;;;;;1999.90;999.90;;;16.30;99.90;;;;;;4956377;28;20526;-74
2022/06/09 02:27:05;;;;;;;1999.90;999.90;;;16.30;99.90;;;;;;4975061;28;20035;-77
2022/06/09 02:29:32;;;;;;;1999.90;999.90;;;16.30;99.90;;;;;;4974972;28;20027;-77
2022/06/09 02:31:57;;;;;;;1999.90;999.90;;;16.20;99.90;;;;;;4957642;28;20033;-74
2022/06/09 02:34:23;;;;;;;1999.90;999.90;;;16.30;99.90;;;;;;4955914;28;20394;-74
2022/06/09 02:36:49;;;;;;;1999.90;999.90;;;16.30;99.90;;;;;;4955322;29;20094;-74
2022/06/09 02:39:15;;;;;;;1999.90;999.90;;;16.30;99.90;;;;;;4955578;29;20197;-74
2022/06/09 02:41:40;;;;;;;1999.90;999.90;;;16.30;99.90;;;;;;4955583;29;20398;-74
2022/06/09 02:44:06;;;;;;;1999.90;999.90;;;16.30;99.90;;;;;;4948767;29;20057;-75
2022/06/09 02:46:32;;;;;;;1999.90;999.90;;;16.30;99.90;;;;;;4950485;29;20039;-78
2022/06/09 02:48:59;;;;;;;1999.90;999.90;;;16.30;99.90;;;;;;4955280;29;20542;-74
2022/06/09 02:51:31;;;;;;;1999.90;999.90;;;16.30;99.90;;;;;;4951772;29;20114;-76
2022/06/09 02:53:59;;;;;;;1999.90;999.90;;;16.30;99.90;;;;;;4953913;29;20126;-75
2022/06/09 02:56:26;;;;;;;1999.90;999.90;;;16.30;99.90;;;;;;4953283;29;20019;-74
2022/06/09 02:58:52;;;;;;;1999.90;999.90;;;16.30;99.90;;;;;;4937769;29;20042;-77
2022/06/09 03:01:19;;;;;;;1999.90;999.90;;;16.30;99.90;;;;;;4955097;28;20094;-78
2022/06/09 03:03:45;;;;;;;1999.90;999.90;;;16.30;99.90;;;;;;4972257;28;20035;-74
2022/06/09 03:06:11;;;;;;;1999.90;999.90;;;16.20;99.90;;;;;;4973323;28;20141;-77
2022/06/09 03:08:37;;;;;;;1999.90;999.90;;;16.30;99.90;;;;;;4947115;29;20114;-74
2022/06/09 03:11:03;;;;;;;1999.90;999.90;;;16.30;99.90;;;;;;4954987;29;20635;-75
2022/06/09 03:13:29;;;;;;;1999.90;999.90;;;16.30;99.90;;;;;;4944905;28;20125;-77
2022/06/09 03:15:55;;;;;;;1999.90;999.90;;;16.30;99.90;;;;;;4962859;28;20106;-74
2022/06/09 03:18:21;;;;;;;1999.90;999.90;;;16.30;99.90;;;;;;4974016;28;20038;-77
2022/06/09 03:20:47;;;;;;;1999.90;999.90;;;16.20;99.90;;;;;;4973821;28;20399;-75
2022/06/09 03:23:14;;;;;;;1999.90;999.90;;;16.30;99.90;;;;;;4968375;28;20038;-74
2022/06/09 03:25:39;;;;;;;1999.90;999.90;;;16.30;99.90;;;;;;4968638;28;20026;-77
2022/06/09 03:28:07;;;;;;;1999.90;999.90;;;16.30;99.90;;;;;;4974188;28;20117;-74
2022/06/09 03:30:33;;;;;;;1999.90;999.90;;;16.30;99.90;;;;;;4973715;28;20434;-77
2022/06/09 03:32:59;;;;;;;1999.90;999.90;;;16.30;99.90;;;;;;4960986;28;20031;-77
2022/06/09 03:35:25;;;;;;;1999.90;999.90;;;16.30;99.90;;;;;;4974598;28;20073;-74
2022/06/09 03:37:50;;;;;;;1999.90;999.90;;;16.30;99.90;;;;;;4969910;28;20447;-74
2022/06/09 03:40:19;;;;;;;1999.90;999.90;;;16.30;99.90;;;;;;4954773;29;20023;-74
2022/06/09 03:42:45;;;;;;;1999.90;999.90;;;16.30;99.90;;;;;;4954263;29;20054;-74
2022/06/09 03:45:11;;;;;;;1999.90;999.90;;;16.30;99.90;;;;;;4937431;29;20023;-77
2022/06/09 03:47:38;;;;;;;1999.90;999.90;;;16.30;99.90;;;;;;4949716;29;20027;-76
2022/06/09 03:50:06;;;;;;;1999.90;999.90;;;16.30;99.90;;;;;;4954520;29;20098;-74
2022/06/09 03:52:32;;;;;;;1999.90;999.90;;;16.30;99.90;;;;;;4953922;29;20059;-75
2022/06/09 03:54:57;;;;;;;1999.90;999.90;;;16.30;99.90;;;;;;4954374;29;20368;-74
2022/06/09 03:57:24;;;;;;;1999.90;999.90;;;16.30;99.90;;;;;;4953505;29;20039;-74
2022/06/09 03:59:50;;;;;;;1999.90;999.90;;;16.30;99.90;;;;;;4967710;28;20026;-74
2022/06/09 04:02:15;;;;;;;1999.90;999.90;;;16.30;99.90;;;;;;4964815;28;20035;-78
2022/06/09 04:04:41;;;;;;;1999.90;999.90;;;16.40;99.90;;;;;;4954227;29;20491;-77
2022/06/09 04:07:07;;;;;;;1999.90;999.90;;;16.30;99.90;;;;;;4948151;29;20032;-75
2022/06/09 04:09:33;;;;;;;1999.90;999.90;;;16.30;99.90;;;;;;4936620;29;20110;-77
2022/06/09 04:11:59;;;;;;;1999.90;999.90;;;16.30;99.90;;;;;;4954163;29;20090;-74
2022/06/09 04:14:25;;;;;;;1999.90;999.90;;;16.40;99.90;;;;;;4955809;28;20035;-75
2022/06/09 04:16:55;;;;;;;1999.90;999.90;;;16.40;99.90;;;;;;4958161;29;20091;-77
2022/06/09 04:19:22;;;;;;;1999.90;999.90;;;16.40;99.90;;;;;;4957691;29;20079;-76
2022/06/09 04:21:48;;;;;;;1999.90;999.90;;;16.30;99.90;;;;;;4957954;29;20034;-74
2022/06/09 04:24:16;;;;;;;1999.90;999.90;;;16.40;99.90;;;;;;4952983;28;20122;-76
2022/06/09 04:26:42;;;;;;;1999.90;999.90;;;16.40;99.90;;;;;;4977291;28;20037;-74
2022/06/09 04:29:11;;;;;;;1999.90;999.90;;;16.40;99.90;;;;;;4957550;28;20035;-74
2022/06/09 04:31:37;;;;;;;1999.90;999.90;;;16.40;99.90;;;;;;4950190;29;20031;-77
2022/06/09 04:34:03;;;;;;;1999.90;999.90;;;16.40;99.90;;;;;;4957787;29;20023;-74
2022/06/09 04:36:29;;;;;;;1999.90;999.90;;;16.40;99.90;;;;;;4957799;29;20031;-74
2022/06/09 04:38:55;;;;;;;1999.90;999.90;;;16.40;99.90;;;;;;4957719;29;20082;-74
2022/06/09 04:41:20;;;;;;;1999.90;999.90;;;16.40;99.90;;;;;;4958141;29;20023;-74
2022/06/09 04:43:47;;;;;;;1999.90;999.90;;;16.40;99.90;;;;;;4948414;29;20039;-74
2022/06/09 04:46:19;;;;;;;1999.90;999.90;;;16.40;99.90;;;;;;4953323;29;20539;-74
2022/06/09 04:48:45;;;;;;;1999.90;999.90;;;16.40;99.90;;;;;;4939836;29;20035;-74
2022/06/09 04:51:12;;;;;;;1999.90;999.90;;;16.50;99.90;;;;;;4957391;29;20478;-74
2022/06/09 04:53:39;;;;;;;1999.90;999.90;;;16.50;99.90;;;;;;4938502;29;20035;-74
2022/06/09 04:56:06;;;;;;;1999.90;999.90;;;16.50;99.90;;;;;;4932906;29;20016;-78
2022/06/09 04:58:32;;;;;;;1999.90;999.90;;;16.50;99.90;;;;;;4958504;28;20031;-78
2022/06/09 05:00:57;;;;;;;1999.90;999.90;;;16.50;99.90;;;;;;4976225;28;20462;-76
2022/06/09 05:03:23;;;;;;;1999.90;999.90;;;16.60;99.90;;;;;;4974542;28;20035;-76
2022/06/09 05:05:50;;;;;;;1999.90;999.90;;;16.60;99.90;;;;;;4951127;28;20027;-75
2022/06/09 05:08:17;;;;;;;1999.90;999.90;;;16.60;99.90;;;;;;4949959;29;20043;-78
2022/06/09 05:10:46;;;;;;;1999.90;999.90;;;16.60;99.90;;;;;;4957135;29;20190;-77
2022/06/09 05:13:13;;;;;;;1999.90;999.90;;;16.60;99.90;;;;;;4956893;29;20030;-74
2022/06/09 05:15:51;;;;;;;1999.90;999.90;;;16.60;99.90;;;;;;4939586;29;20024;-75
2022/06/09 05:18:19;;;;;;;1999.90;999.90;;;16.70;99.90;;;;;;4956757;29;20494;-73
2022/06/09 05:20:44;;;;;;;1999.90;999.90;;;16.70;99.90;;;;;;4938549;29;20495;-76
2022/06/09 05:23:10;;;;;;;1999.90;999.90;;;16.60;99.90;;;;;;4951581;29;20065;-75
2022/06/09 05:25:36;;;;;;;1999.90;999.90;;;16.60;99.90;;;;;;4969082;28;20106;-75
2022/06/09 05:28:01;;;;;;;1999.90;999.90;;;16.60;99.90;;;;;;4967784;28;20031;-74
2022/06/09 05:30:27;;;;;;;1999.90;999.90;;;16.60;99.90;;;;;;4956576;29;20027;-76
2022/06/09 05:32:53;;;;;;;1999.90;999.90;;;16.60;99.90;;;;;;4956177;29;20066;-75
2022/06/09 05:35:20;;;;;;;1999.90;999.90;;;16.60;99.90;;;;;;4954294;29;20066;-77
2022/06/09 05:46:01;;;;;;;1999.90;999.90;;;16.50;99.90;;;;;;4950177;29;20141;-75
2022/06/09 05:48:27;;;;;;;1999.90;999.90;;;16.60;99.90;;;;;;4958278;28;20027;-77
2022/06/09 05:50:54;;;;;;;1999.90;999.90;;;16.50;99.90;;;;;;4955022;29;20462;-78
2022/06/09 05:53:20;;;;;;;1999.90;999.90;;;16.60;99.90;;;;;;4955718;29;20051;-77
2022/06/09 05:55:46;;;;;;;1999.90;999.90;;;16.60;99.90;;;;;;4938401;29;20031;-75
2022/06/09 05:58:12;;;;;;;1999.90;999.90;;;16.70;99.90;;;;;;4955050;28;20046;-75
2022/06/09 06:00:39;;;;;;;1999.90;999.90;;;16.90;99.90;;;;;;4974856;28;20019;-75
2022/06/09 06:03:04;;;;;;;1999.90;999.90;;;17.00;99.90;;;;;;4959317;28;20035;-77
2022/06/09 06:08:14;;;;;;;1999.90;999.90;;;17.10;99.90;;;;;;4952179;29;20402;-77
2022/06/09 06:10:40;;;;;;;1999.90;999.90;;;17.20;99.90;;;;;;4955578;29;20113;-75
2022/06/09 06:13:05;;;;;;;1999.90;999.90;;;17.30;99.90;;;;;;4953004;29;20170;-77
2022/06/09 06:15:32;;;;;;;1999.90;999.90;;;17.30;99.90;;;;;;4951248;28;20101;-75
2022/06/09 06:18:01;;;;;;;1999.90;999.90;;;17.30;99.90;;;;;;4944043;28;20471;-78
2022/06/09 06:20:26;;;;;;;1999.90;999.90;;;17.40;99.90;;;;;;4953026;29;20011;-77
2022/06/09 06:22:52;;;;;;;1999.90;999.90;;;17.50;99.90;;;;;;4950515;29;20036;-75
2022/06/09 06:25:18;;;;;;;1999.90;999.90;;;17.50;99.90;;;;;;4942286;29;20020;-74
2022/06/09 06:27:43;;;;;;;1999.90;999.90;;;17.30;99.90;;;;;;4948603;29;20513;-78
2022/06/09 06:30:09;;;;;;;1999.90;999.90;;;17.20;99.90;;;;;;4954303;29;20038;-75
2022/06/09 06:32:35;;;;;;;1999.90;999.90;;;17.00;99.90;;;;;;4952852;29;20522;-77
2022/06/09 06:35:01;;;;;;;1999.90;999.90;;;16.90;99.90;;;;;;4939501;29;20402;-75
2022/06/09 06:37:27;;;;;;;1999.90;999.90;;;16.90;99.90;;;;;;4944859;29;20118;-75
2022/06/09 06:39:52;;;;;;;1999.90;999.90;;;16.90;99.90;;;;;;4953612;29;20019;-75
2022/06/09 06:42:18;;;;;;;1999.90;999.90;;;17.10;99.90;;;;;;4949705;29;20047;-75
2022/06/09 06:44:44;;;;;;;1999.90;999.90;;;17.30;99.90;;;;;;4946926;29;20494;-75
2022/06/09 06:47:11;;;;;;;1999.90;999.90;;;17.70;99.90;;;;;;4952914;29;20027;-75
2022/06/09 06:49:36;;;;;;;1999.90;999.90;;;17.80;99.90;;;;;;4953601;28;20035;-75
2022/06/09 06:52:03;;;;;;;1999.90;999.90;;;17.80;99.90;;;;;;4962095;28;20526;-75
2022/06/09 06:54:28;;;;;;;1999.90;999.90;;;17.90;99.90;;;;;;4950572;29;20053;-77
2022/06/09 06:56:54;;;;;;;1999.90;999.90;;;18.10;99.90;;;;;;4935996;28;20027;-77
2022/06/09 06:59:20;;;;;;;1999.90;999.90;;;18.30;99.90;;;;;;4940618;29;20026;-78
2022/06/09 07:01:45;;;;;;;1999.90;999.90;;;18.30;99.90;;;;;;4947366;28;20058;-75
2022/06/09 07:04:11;;;;;;;1999.90;999.90;;;18.20;99.90;;;;;;4947991;29;20447;-75
2022/06/09 07:06:37;;;;;;;1999.90;999.90;;;18.20;99.90;;;;;;4951714;28;20035;-75
2022/06/09 07:09:02;;;;;;;1999.90;999.90;;;18.70;99.90;;;;;;4938904;28;20038;-75
2022/06/09 07:11:28;;;;;;;1999.90;999.90;;;18.60;99.90;;;;;;4938936;28;20037;-77
2022/06/09 07:13:54;;;;;;;1999.90;999.90;;;18.20;99.90;;;;;;4936671;28;20145;-78
2022/06/09 07:16:19;;;;;;;1999.90;999.90;;;17.90;99.90;;;;;;4949661;28;20430;-75
2022/06/09 07:18:46;;;;;;;1999.90;999.90;;;17.60;99.90;;;;;;4952780;28;20502;-77
2022/06/09 07:21:13;;;;;;;1999.90;999.90;;;17.70;99.90;;;;;;4946818;28;20023;-78
2022/06/09 07:23:38;;;;;;;1999.90;999.90;;;18.00;99.90;;;;;;4953759;28;20046;-77
2022/06/09 07:26:05;;;;;;;1999.90;999.90;;;18.40;99.90;;;;;;4955371;28;20031;-78
2022/06/09 07:28:31;;;;;;;1999.90;999.90;;;18.80;99.90;;;;;;4948281;29;20570;-75
2022/06/09 07:30:59;;;;;;;1999.90;999.90;;;19.20;99.90;;;;;;4945453;28;20168;-77
2022/06/09 07:33:31;;;;;;;1999.90;999.90;;;19.10;99.90;;;;;;4950028;28;20027;-78
2022/06/09 07:35:58;;;;;;;1999.90;999.90;;;19.70;99.90;;;;;;4940770;29;20036;-75
2022/06/09 07:38:25;;;;;;;1999.90;999.90;;;21.20;99.90;;;;;;4924857;28;20173;-75
2022/06/09 07:40:53;;;;;;;1999.90;999.90;;;20.50;99.90;;;;;;4951974;28;20118;-74
2022/06/09 07:43:19;;;;;;;1999.90;999.90;;;19.70;99.90;;;;;;4941552;28;20487;-75
2022/06/09 07:45:47;;;;;;;1999.90;999.90;;;21.00;99.90;;;;;;4934731;28;20046;-75
2022/06/09 07:48:13;;;;;;;1999.90;999.90;;;21.00;99.90;;;;;;4953362;28;20502;-78
2022/06/09 07:50:39;;;;;;;1999.90;999.90;;;22.70;99.90;;;;;;4950999;28;20839;-75
2022/06/09 07:53:06;;;;;;;1999.90;999.90;;;23.80;98.90;;;;;;4947697;29;20063;-75
2022/06/09 07:55:32;;;;;;;1999.90;999.90;;;25.00;97.50;;;;;;4949240;28;20033;-76
2022/06/09 07:57:59;;;;;;;1999.90;999.90;;;26.10;96.00;;;;;;4950680;29;20477;-78
2022/06/09 08:00:25;;;;;;;1999.90;999.90;;;27.10;94.70;;;;;;4950061;29;20027;-78
2022/06/09 08:02:51;;;;;;;1999.90;999.90;;;26.20;94.60;;;;;;4938341;28;20051;-75
2022/06/09 08:05:19;;;;;;;1999.90;999.90;;;25.70;95.30;;;;;;4955843;28;20046;-77
2022/06/09 08:07:45;;;;;;;1999.90;999.90;;;25.40;94.20;;;;;;4942982;29;20135;-77
2022/06/09 08:10:17;;;;;;;1999.90;999.90;;;26.40;93.90;;;;;;4945986;28;20505;-78
2022/06/09 08:12:44;;;;;;;;;;;27.80;92.90;;;;;;4950852;28;20054;-77
2022/06/09 08:15:10;;;;;;;1999.90;999.90;;;28.50;92.10;;;;;;4944432;28;19930;-75
2022/06/09 08:17:38;;;;;;;1999.90;999.90;;;29.50;91.70;;;;;;4939950;29;20051;-79
2022/06/09 08:20:05;;;;;;;1999.90;999.90;;;28.40;91.80;;;;;;4948189;28;20031;-78
2022/06/09 08:22:31;;;;;;;1999.90;999.90;;;27.60;91.80;;;;;;4944908;29;20437;-78
2022/06/09 08:24:57;;;;;;;1999.90;999.90;;;27.20;92.60;;;;;;4952152;28;20031;-78
2022/06/09 08:27:23;;;;;;;1999.90;999.90;;;28.00;91.00;;;;;;4943201;28;20102;-75
2022/06/09 08:29:49;;;;;;;1999.90;999.90;;;27.20;91.80;;;;;;4945398;28;20039;-75
2022/06/09 08:32:15;;;;;;;1999.90;999.90;;;28.10;91.60;;;;;;4944775;28;20098;-76
2022/06/09 08:34:41;;;;;;;1999.90;999.90;;;29.00;90.90;;;;;;4949659;28;20126;-75
2022/06/09 08:37:07;;;;;;;1999.90;999.90;;;29.10;88.00;;;;;;4936747;29;20103;-79
2022/06/09 08:39:33;;;;;;;1999.90;999.90;;;28.20;90.80;;;;;;4952588;28;20078;-74
2022/06/09 08:42:30;;;;;;;1999.90;999.90;;;27.40;90.20;;;;;;4950064;29;20027;-74
2022/06/09 08:45:02;;;;;;;1999.90;999.90;;;27.90;91.50;;;;;;4934954;28;20050;-78
2022/06/09 08:47:45;;;;;;;1999.90;999.90;;;28.70;90.60;;;;;;4953184;28;20086;-79
2022/06/09 08:50:19;;;;;;;1999.90;999.90;;;29.30;88.20;;;;;;4945646;28;20036;-79
2022/06/09 08:52:54;;;;;;;1999.90;999.90;;;29.50;89.10;;;;;;4932840;29;20599;-80
2022/06/09 08:55:40;;;;;;;1999.90;999.90;;;29.90;88.60;;;;;;4950600;28;20507;-80
2022/06/09 08:58:27;;;;;;;1999.90;999.90;;;30.10;89.80;;;;;;4945163;28;20039;-79
2022/06/09 09:01:07;;;;;;;1999.90;999.90;;;28.90;90.00;;;;;;4950823;28;20031;-74
2022/06/09 09:03:40;;;;;;;1999.90;999.90;;;29.00;88.60;;;;;;4943643;29;20059;-79
2022/06/09 09:06:12;;;;;;;1999.90;999.90;;;29.80;88.00;;;;;;4946151;29;20033;-76
2022/06/09 09:08:38;;;;;;;1999.90;999.90;;;29.80;87.90;;;;;;4952680;28;20035;-79
2022/06/09 09:11:30;;;;;;;1999.90;999.90;;;29.90;86.30;;;;;;4948879;28;20126;-76
2022/06/09 09:14:18;;;;;;;1999.90;999.90;;;29.80;86.30;;;;;;4944317;29;20028;-76
2022/06/09 09:17:02;;;;;;;1999.90;999.90;;;30.10;85.30;;;;;;4943279;29;20035;-76
2022/06/09 09:19:53;;;;;;;1999.90;999.90;;;30.40;85.70;;;;;;4942784;28;20028;-79
2022/06/09 09:22:30;;;;;;;1999.90;999.90;;;30.60;85.70;;;;;;4942801;29;20042;-79
2022/06/09 09:25:20;;;;;;;1999.90;999.90;;;30.60;83.40;;;;;;4950877;29;20105;-75
2022/06/09 09:27:54;;;;;;;1999.90;999.90;;;29.10;86.50;;;;;;4951810;28;20485;-81
2022/06/09 09:30:35;;;;;;;1999.90;999.90;;;29.50;86.60;;;;;;4945082;28;20023;-80
2022/06/09 09:33:01;;;;;;;1999.90;999.90;;;29.90;86.60;;;;;;4952570;28;20039;-76
2022/06/09 09:35:40;;;;;;;1999.90;999.90;;;29.60;86.10;;;;;;4940677;29;20506;-76
2022/06/09 09:38:06;;;;;;;1999.90;999.90;;;29.60;84.50;;;;;;4946589;28;20042;-80
2022/06/09 09:40:44;;;;;;;1999.90;999.90;;;29.60;84.10;;;;;;4953953;28;20053;-78
2022/06/09 09:43:16;;;;;;;1999.90;999.90;;;28.60;87.80;;;;;;4950991;28;20395;-81
2022/06/09 09:45:46;;;;;;;1999.90;999.90;;;29.20;86.10;;;;;;4952127;28;20023;-74
2022/06/09 09:48:17;;;;;;;1999.90;999.90;;;29.20;83.30;;;;;;4947986;28;20121;-75
2022/06/09 09:50:58;;;;;;;1999.90;999.90;;;28.80;81.60;;;;;;4953247;28;20580;-76
2022/06/09 09:53:32;;;;;;;1999.90;999.90;;;28.60;81.10;;;;;;4929255;29;20075;-76
2022/06/09 09:56:16;;;;;;;1999.90;999.90;;;27.40;81.90;;;;;;4950865;29;20072;-81
2022/06/09 09:58:48;;;;;;;1999.90;999.90;;;27.90;87.40;;;;;;4945174;28;20118;-75
2022/06/09 10:01:16;;;;;;;1999.90;999.90;;;27.30;84.50;;;;;;4934673;28;20023;-81
2022/06/09 10:09:43;;;;;;;1999.90;999.90;;;27.40;82.40;;;;;;4953169;28;20069;-79
2022/06/09 10:12:17;;;;;;;1999.90;999.90;;;28.30;80.30;;;;;;4954986;28;20042;-81
2022/06/09 10:14:47;;;;;;;1999.90;999.90;;;28.80;80.50;;;;;;4940610;28;20039;-80
2022/06/09 10:17:28;;;;;;;1999.90;999.90;;;29.40;79.90;;;;;;4939227;28;20057;-76
2022/06/09 10:20:17;;;;;;;1999.90;999.90;;;28.80;82.90;;;;;;4935112;29;20038;-81
2022/06/09 10:22:55;;;;;;;1999.90;999.90;;;28.00;80.30;;;;;;4930129;29;20221;-80
2022/06/09 10:25:36;;;;;;;1999.90;999.90;;;27.80;83.30;;;;;;4933749;28;20110;-76
2022/06/09 10:28:13;;;;;;;1999.90;999.90;;;28.10;83.70;;;;;;4942321;28;20034;-76
2022/06/09 10:30:46;;;;;;;1999.90;999.90;;;28.40;84.50;;;;;;4937333;28;20027;-80
2022/06/09 10:33:35;;;;;;;1999.90;999.90;;;28.50;83.50;;;;;;4939964;28;20031;-80
2022/06/09 10:36:20;;;;;;;1999.90;999.90;;;28.60;83.10;;;;;;4938036;28;20024;-81
2022/06/09 10:38:53;;;;;;;1999.90;999.90;;;29.20;78.90;;;;;;4933559;28;20024;-76
2022/06/09 10:41:37;;;;;;;1999.90;999.90;;;29.50;79.40;;;;;;4907550;29;20484;-79
2022/06/09 10:44:14;;;;;;;1999.90;999.90;;;29.50;79.70;;;;;;4943690;28;20114;-77
2022/06/09 10:55:14;;;;;;;1999.90;999.90;;;29.90;82.20;;;;;;4930296;29;20457;-81
2022/06/09 10:55:57;;;;;;;1999.90;999.90;;;29.50;81.60;;;;;;4937669;28;20046;-80
2022/06/09 10:58:29;;;;;;;1999.90;999.90;;;28.60;81.60;;;;;;4935978;28;20600;-76
2022/06/09 11:00:56;;;;;;;1999.90;999.90;;;29.50;82.30;;;;;;4922850;29;20103;-82
2022/06/09 11:03:45;;;;;;;1999.90;999.90;;;29.40;83.80;;;;;;4924513;28;20546;-77
2022/06/09 11:06:18;;;;;;;1999.90;999.90;;;29.20;81.10;;;;;;4923940;28;20632;-77
2022/06/09 11:08:46;;;;;;;1999.90;999.90;;;29.60;83.60;;;;;;4911659;29;20036;-80
2022/06/09 11:11:15;;;;;;;1999.90;999.90;;;29.50;81.70;;;;;;4920520;28;20035;-84
2022/06/09 11:14:02;;;;;;;1999.90;999.90;;;29.50;81.40;;;;;;4921842;29;20036;-82
2022/06/09 11:16:48;;;;;;;1999.90;999.90;;;29.60;81.60;;;;;;4909354;29;20032;-81
2022/06/09 11:19:40;;;;;;;1999.90;999.90;;;29.40;80.80;;;;;;4929584;28;20034;-75
2022/06/09 11:22:06;;;;;;;1999.90;999.90;;;29.10;82.00;;;;;;4924924;29;20023;-76
2022/06/09 11:25:00;;;;;;;1999.90;999.90;;;29.30;83.20;;;;;;4928843;29;20528;-81
2022/06/09 11:27:34;;;;;;;1999.90;999.90;;;28.80;82.80;;;;;;4931985;28;20075;-79
2022/06/09 11:30:31;;;;;;;1999.90;999.90;;;27.70;84.90;;;;;;4934531;29;20035;-74
2022/06/09 11:33:18;;;;;;;1999.90;999.90;;;26.60;88.80;;;;;;4948213;29;20098;-74
2022/06/09 11:36:02;;;;;;;1999.90;999.90;;;27.40;86.70;;;;;;4946992;29;20035;-76
2022/06/09 11:38:49;;;;;;;1999.90;999.90;;;26.80;89.80;;;;;;4939800;29;20043;-80
2022/06/09 11:41:42;;;;;;;1999.90;999.90;;;26.90;89.40;;;;;;4945442;29;20063;-75
2022/06/09 11:44:25;;;;;;;1999.90;999.90;;;25.60;89.50;;;;;;4939644;29;20042;-83
2022/06/09 11:46:52;;;;;;;;;;;25.40;92.20;;;;;;4911526;29;20051;-81
2022/06/09 11:49:47;;;;;;;1999.90;999.90;;;26.20;90.80;;;;;;4931142;29;19915;-75
2022/06/09 11:52:24;;;;;;;1999.90;999.90;;;25.60;92.50;;;;;;4946699;28;20047;-78
2022/06/09 11:54:52;;;;;;;1999.90;999.90;;;25.80;91.00;;;;;;4946921;29;20028;-75
2022/06/09 11:57:21;;;;;;;1999.90;999.90;;;25.10;91.80;;;;;;4951045;28;20028;-75
2022/06/09 12:00:26;;;;;;;1999.90;999.90;;;25.80;92.60;;;;;;4915615;29;20498;-81
2022/06/09 12:03:00;;;;;;;1999.90;999.90;;;27.00;90.30;;;;;;4932325;29;20583;-75
2022/06/09 12:05:47;;;;;;;1999.90;999.90;;;24.80;92.40;;;;;;4929781;29;20050;-82
2022/06/09 12:08:21;;;;;;;1999.90;999.90;;;24.10;93.90;;;;;;4939909;29;20054;-81
2022/06/09 12:11:18;;;;;;;1999.90;999.90;;;24.00;93.20;;;;;;4951337;29;20031;-75
2022/06/09 12:14:16;;;;;;;1999.90;999.90;;;23.80;93.70;;;;;;4930922;29;20380;-80
2022/06/09 12:16:53;;;;;;;1999.90;999.90;;;23.70;94.70;;;;;;4930428;29;20039;-78
2022/06/09 12:19:25;;;;;;;1999.90;999.90;;;24.60;93.10;;;;;;4941403;28;20027;-80
2022/06/09 12:21:59;;;;;;;1999.90;999.90;;;24.00;94.20;;;;;;4945924;29;20051;-79
2022/06/09 12:24:31;;;;;;;1999.90;999.90;;;23.70;95.80;;;;;;4946981;28;20027;-80
2022/06/09 12:27:21;;;;;;;1999.90;999.90;;;23.00;96.00;;;;;;4952320;28;20043;-82
2022/06/09 12:30:25;;;;;;;1999.90;999.90;;;23.50;95.30;;;;;;4938014;28;20042;-83
2022/06/09 12:32:52;;;;;;;1999.90;999.90;;;22.20;97.30;;;;;;4948885;28;20046;-83
2022/06/09 12:35:19;;;;;;;1999.90;999.90;;;21.90;98.30;;;;;;4949886;28;20031;-83
2022/06/09 12:37:53;;;;;;;1999.90;999.90;;;23.10;96.70;;;;;;4964612;28;20034;-84
2022/06/09 12:40:25;;;;;;;1999.90;999.90;;;22.60;97.50;;;;;;4953773;28;20078;-85
2022/06/09 12:43:07;;;;;;;1999.90;999.90;;;22.30;98.40;;;;;;4945538;29;20028;-81